createdAt,value
2023-08-14T00:00:01.983Z,100825.34
2023-08-14T00:03:05.006Z,100832.69
2023-08-14T00:06:07.656Z,100835.59
2023-08-14T00:09:10.085Z,100832.59
2023-08-14T00:12:12.557Z,100832.34
2023-08-14T00:15:15.311Z,100829.16
2023-08-14T00:18:18.065Z,100832.50
2023-08-14T00:21:20.693Z,100832.84
2023-08-14T00:24:23.101Z,100832.84
2023-08-14T00:27:26.295Z,100829.59
2023-08-14T00:30:28.714Z,100826.09
2023-08-14T00:33:31.114Z,100828.75
2023-08-14T00:36:33.655Z,100831.72
2023-08-14T00:39:36.123Z,100831.13
2023-08-14T00:42:43.541Z,100832.41
2023-08-14T00:45:47.297Z,100836.75
2023-08-14T00:48:50.720Z,100833.59
2023-08-14T00:51:53.905Z,100829.72
2023-08-14T00:54:56.351Z,100828.03
2023-08-14T00:57:58.921Z,100832.97
2023-08-14T01:01:01.561Z,100836.13
2023-08-14T01:04:04.555Z,100838.78
2023-08-14T01:07:06.967Z,100842.53
2023-08-14T01:10:11.503Z,100838.63
2023-08-14T01:13:26.067Z,100836.78
2023-08-14T01:16:39.419Z,100835.16
2023-08-14T01:19:42.862Z,100836.66
2023-08-14T01:23:07.077Z,100830.81
2023-08-14T01:26:09.823Z,100834.63
2023-08-14T01:29:12.473Z,100842.44
2023-08-14T01:32:15.277Z,100839.03
2023-08-14T01:35:20.824Z,100842.56
2023-08-14T01:38:33.108Z,100843.59
2023-08-14T01:42:03.983Z,100844.63
2023-08-14T01:45:13.499Z,100844.91
2023-08-14T01:48:16.412Z,100843.84
2023-08-14T01:51:20.621Z,100848.91
2023-08-14T01:54:23.079Z,100845.38
2023-08-14T01:57:26.531Z,100851.53
2023-08-14T02:00:33.036Z,100849.56
2023-08-14T02:03:35.900Z,100847.53
2023-08-14T02:06:38.293Z,100858.19
2023-08-14T02:09:40.712Z,100857.88
2023-08-14T02:12:43.136Z,100853.19
2023-08-14T02:15:47.072Z,100859.75
2023-08-14T02:18:49.628Z,100865.00
2023-08-14T02:21:52.036Z,100872.13
2023-08-14T02:24:54.547Z,100869.38
2023-08-14T02:27:56.934Z,100865.94
2023-08-14T02:31:03.018Z,100870.25
2023-08-14T02:34:05.491Z,100866.34
2023-08-14T02:37:07.870Z,100862.94
2023-08-14T02:40:10.735Z,100862.56
2023-08-14T02:43:13.155Z,100860.44
2023-08-14T02:46:16.374Z,100866.81
2023-08-14T02:49:18.902Z,100874.41
2023-08-14T02:52:21.358Z,100868.44
2023-08-14T02:55:23.956Z,100875.56
2023-08-14T02:58:26.696Z,100880.84
2023-08-14T03:01:29.148Z,100880.91
2023-08-14T03:04:31.631Z,100883.41
2023-08-14T03:07:34.111Z,100880.78
2023-08-14T03:10:36.518Z,100886.50
2023-08-14T03:13:38.943Z,100883.72
2023-08-14T03:16:41.461Z,100888.06
2023-08-14T03:19:43.980Z,100887.38
2023-08-14T03:22:46.517Z,100896.72
2023-08-14T03:25:48.961Z,100893.19
2023-08-14T03:28:51.368Z,100902.66
2023-08-14T03:31:54.012Z,100896.19
2023-08-14T03:34:56.977Z,100905.19
2023-08-14T03:38:00.392Z,100896.59
2023-08-14T03:41:03.050Z,100900.50
2023-08-14T03:44:06.408Z,100899.47
2023-08-14T03:47:09.112Z,100897.88
2023-08-14T03:50:11.908Z,100904.38
2023-08-14T03:53:14.964Z,100899.81
2023-08-14T03:56:17.440Z,100913.13
2023-08-14T03:59:19.870Z,100913.25
2023-08-14T04:02:22.362Z,100914.84
2023-08-14T04:05:24.792Z,100908.22
2023-08-14T04:08:27.218Z,100914.44
2023-08-14T04:11:30.028Z,100912.56
2023-08-14T04:14:34.092Z,100912.38
2023-08-14T04:17:36.576Z,100914.91
2023-08-14T04:20:39.040Z,100905.03
2023-08-14T04:23:41.405Z,100883.78
2023-08-14T04:26:43.959Z,100892.16
2023-08-14T04:29:48.111Z,100891.44
2023-08-14T04:32:50.581Z,100891.09
2023-08-14T04:35:53.296Z,100898.66
2023-08-14T04:38:56.151Z,100902.13
2023-08-14T04:42:00.008Z,100898.22
2023-08-14T04:45:04.108Z,100892.25
2023-08-14T04:48:06.853Z,100892.41
2023-08-14T04:51:09.403Z,100892.00
2023-08-14T04:54:12.002Z,100898.84
2023-08-14T04:57:14.434Z,100898.94
2023-08-14T05:00:17.220Z,100894.19
2023-08-14T05:03:20.200Z,100887.13
2023-08-14T05:06:24.058Z,100892.19
2023-08-14T05:09:27.939Z,100888.38
2023-08-14T05:12:32.382Z,100883.16
2023-08-14T05:15:34.972Z,100894.28
2023-08-14T05:18:37.408Z,100889.78
2023-08-14T05:21:39.929Z,100891.53
2023-08-14T05:24:42.323Z,100900.97
2023-08-14T05:27:44.675Z,100901.81
2023-08-14T05:30:47.163Z,100900.88
2023-08-14T05:33:49.649Z,100902.78
2023-08-14T05:36:52.077Z,100896.25
2023-08-14T05:39:54.498Z,100899.13
2023-08-14T05:43:04.871Z,100902.13
2023-08-14T05:46:07.408Z,100897.91
2023-08-14T05:49:09.953Z,100897.22
2023-08-14T05:52:12.360Z,100906.59
2023-08-14T05:55:15.251Z,100907.72
2023-08-14T05:58:17.685Z,100902.63
2023-08-14T06:01:20.180Z,100906.31
2023-08-14T06:04:22.842Z,100915.25
2023-08-14T06:07:25.289Z,100915.59
2023-08-14T06:10:27.914Z,100909.69
2023-08-14T06:13:30.272Z,100914.56
2023-08-14T06:16:32.721Z,100909.59
2023-08-14T06:19:35.235Z,100914.97
2023-08-14T06:22:41.673Z,100920.50
2023-08-14T06:25:44.763Z,100921.44
2023-08-14T06:28:47.218Z,100913.69
2023-08-14T06:31:49.642Z,100911.94
2023-08-14T06:34:52.086Z,100910.84
2023-08-14T06:37:54.497Z,100915.38
2023-08-14T06:40:56.905Z,100915.13
2023-08-14T06:43:59.316Z,100922.50
2023-08-14T06:47:02.082Z,100926.66
2023-08-14T06:50:04.676Z,100924.88
2023-08-14T06:53:07.064Z,100925.59
2023-08-14T06:56:09.955Z,100928.72
2023-08-14T06:59:12.349Z,100926.75
2023-08-14T07:02:14.791Z,100938.84
2023-08-14T07:05:17.206Z,100930.03
2023-08-14T07:08:19.661Z,100930.13
2023-08-14T07:11:22.144Z,100931.34
2023-08-14T07:14:30.458Z,100930.75
2023-08-14T07:17:33.585Z,100927.53
2023-08-14T07:20:36.172Z,100924.88
2023-08-14T07:23:38.710Z,100929.84
2023-08-14T07:26:42.172Z,100934.22
2023-08-14T07:29:45.453Z,100928.03
2023-08-14T07:32:47.913Z,100922.34
2023-08-14T07:35:50.392Z,100923.56
2023-08-14T07:38:52.817Z,100918.38
2023-08-14T07:41:55.258Z,100930.75
2023-08-14T07:44:57.683Z,100926.09
2023-08-14T07:48:00.120Z,100932.38
2023-08-14T07:51:02.586Z,100935.16
2023-08-14T07:54:05.197Z,100922.84
2023-08-14T07:57:07.646Z,100919.47
2023-08-14T08:00:10.906Z,100919.22
2023-08-14T08:03:16.175Z,100915.03
2023-08-14T08:06:18.559Z,100908.41
2023-08-14T08:09:20.973Z,100914.97
2023-08-14T08:12:23.368Z,100917.59
2023-08-14T08:15:25.783Z,100910.69
2023-08-14T08:18:28.246Z,100914.94
2023-08-14T08:21:30.767Z,100916.63
2023-08-14T08:24:33.198Z,100910.56
2023-08-14T08:27:36.595Z,100909.16
2023-08-14T08:30:39.691Z,100909.63
2023-08-14T08:33:42.042Z,100902.47
2023-08-14T08:36:44.445Z,100909.94
2023-08-14T08:39:49.586Z,100903.38
2023-08-14T08:42:52.501Z,100902.78
2023-08-14T08:45:59.184Z,100894.13
2023-08-14T08:49:03.912Z,100899.81
2023-08-14T08:52:07.141Z,100899.84
2023-08-14T08:55:09.791Z,100884.78
2023-08-14T08:58:16.500Z,100891.97
2023-08-14T09:01:20.146Z,100883.38
2023-08-14T09:04:22.789Z,100895.38
2023-08-14T09:07:25.320Z,100885.09
2023-08-14T09:10:28.960Z,100891.75
2023-08-14T09:13:32.607Z,100897.94
2023-08-14T09:16:35.438Z,100895.22
2023-08-14T09:19:40.085Z,100883.84
2023-08-14T09:22:42.613Z,100888.19
2023-08-14T09:25:48.806Z,100877.28
2023-08-14T09:28:51.736Z,100886.41
2023-08-14T09:31:54.543Z,100876.22
2023-08-14T09:35:01.255Z,100871.94
2023-08-14T09:38:04.285Z,100879.88
2023-08-14T09:41:07.177Z,100872.19
2023-08-14T09:44:09.579Z,100871.00
2023-08-14T09:47:14.778Z,100873.44
2023-08-14T09:50:19.040Z,100870.06
2023-08-14T09:53:21.451Z,100871.38
2023-08-14T09:56:24.958Z,100865.84
2023-08-14T09:59:28.083Z,100869.31
2023-08-14T10:02:33.373Z,100875.75
2023-08-14T10:05:38.987Z,100874.75
2023-08-14T10:08:45.441Z,100868.53
2023-08-14T10:11:49.020Z,100864.13
2023-08-14T10:15:12.826Z,100870.59
2023-08-14T10:18:17.576Z,100866.16
2023-08-14T10:21:21.374Z,100866.50
2023-08-14T10:24:25.070Z,100863.53
2023-08-14T10:27:28.596Z,100860.00
2023-08-14T10:30:32.345Z,100854.06
2023-08-14T10:33:35.098Z,100850.88
2023-08-14T10:36:40.060Z,100853.91
2023-08-14T10:39:42.474Z,100849.06
2023-08-14T10:42:57.103Z,100852.22
2023-08-14T10:45:59.673Z,100847.28
2023-08-14T10:49:02.196Z,100846.97
2023-08-14T10:52:05.043Z,100857.28
2023-08-14T10:55:16.627Z,100849.19
2023-08-14T10:58:40.082Z,100843.63
2023-08-14T11:01:42.555Z,100839.03
2023-08-14T11:05:02.174Z,100841.88
2023-08-14T11:08:07.635Z,100831.91
2023-08-14T11:11:12.045Z,100834.66
2023-08-14T11:14:14.516Z,100833.59
2023-08-14T11:17:17.389Z,100833.25
2023-08-14T11:20:20.379Z,100831.91
2023-08-14T11:23:22.807Z,100827.13
2023-08-14T11:26:29.661Z,100828.09
2023-08-14T11:29:33.183Z,100825.75
2023-08-14T11:32:36.019Z,100821.38
2023-08-14T11:35:38.530Z,100814.84
2023-08-14T11:38:41.555Z,100816.75
2023-08-14T11:41:43.947Z,100823.03
2023-08-14T11:44:46.345Z,100814.13
2023-08-14T11:47:50.383Z,100807.78
2023-08-14T11:50:52.958Z,100799.81
2023-08-14T11:53:55.529Z,100795.16
2023-08-14T11:56:57.965Z,100791.88
2023-08-14T12:00:04.494Z,100782.53
2023-08-14T12:03:08.543Z,100787.03
2023-08-14T12:06:12.043Z,100789.72
2023-08-14T12:09:14.432Z,100786.97
2023-08-14T12:12:18.153Z,100787.81
2023-08-14T12:15:24.246Z,100789.38
2023-08-14T12:18:27.163Z,100791.81
2023-08-14T12:21:29.642Z,100789.91
2023-08-14T12:24:42.996Z,100777.38
2023-08-14T12:27:45.443Z,100778.34
2023-08-14T12:30:49.585Z,100780.84
2023-08-14T12:33:59.225Z,100778.72
2023-08-14T12:37:08.653Z,100780.34
2023-08-14T12:40:11.923Z,100777.25
2023-08-14T12:43:14.508Z,100777.06
2023-08-14T12:46:17.005Z,100765.94
2023-08-14T12:49:20.454Z,100763.09
2023-08-14T12:52:22.807Z,100769.00
2023-08-14T12:55:25.373Z,100761.47
2023-08-14T12:58:27.800Z,100771.44
2023-08-14T13:01:30.583Z,100753.84
2023-08-14T13:04:36.275Z,100757.19
2023-08-14T13:07:39.216Z,100749.06
2023-08-14T13:10:41.578Z,100755.53
2023-08-14T13:13:43.952Z,100753.59
2023-08-14T13:16:46.542Z,100747.31
2023-08-14T13:19:50.061Z,100751.63
2023-08-14T13:22:52.726Z,100751.38
2023-08-14T13:25:55.166Z,100751.31
2023-08-14T13:28:57.913Z,100750.78
2023-08-14T13:32:00.423Z,100752.69
2023-08-14T13:35:03.103Z,100747.94
2023-08-14T13:38:05.632Z,100757.09
2023-08-14T13:41:09.169Z,100754.06
2023-08-14T13:44:12.834Z,100746.00
2023-08-14T13:47:17.259Z,100743.97
2023-08-14T13:50:31.860Z,100742.56
2023-08-14T13:53:35.882Z,100731.25
2023-08-14T13:56:38.323Z,100731.22
2023-08-14T13:59:40.743Z,100732.34
2023-08-14T14:02:43.268Z,100732.53
2023-08-14T14:05:45.704Z,100726.09
2023-08-14T14:08:48.273Z,100730.69
2023-08-14T14:11:50.671Z,100729.56
2023-08-14T14:14:53.031Z,100724.16
2023-08-14T14:17:55.731Z,100727.00
2023-08-14T14:20:59.392Z,100719.94
2023-08-14T14:24:02.077Z,100708.41
2023-08-14T14:27:04.731Z,100707.69
2023-08-14T14:30:08.263Z,100715.75
2023-08-14T14:33:11.238Z,100711.63
2023-08-14T14:36:13.620Z,100716.09
2023-08-14T14:39:16.656Z,100710.50
2023-08-14T14:42:20.672Z,100718.53
2023-08-14T14:45:33.352Z,100718.47
2023-08-14T14:48:37.492Z,100720.38
2023-08-14T14:51:39.922Z,100715.56
2023-08-14T14:54:42.306Z,100712.16
2023-08-14T14:57:44.725Z,100707.03
2023-08-14T15:00:50.769Z,100707.13
2023-08-14T15:03:53.312Z,100706.91
2023-08-14T15:06:55.890Z,100709.59
2023-08-14T15:09:58.268Z,100706.66
2023-08-14T15:13:00.743Z,100701.31
2023-08-14T15:16:03.292Z,100702.97
2023-08-14T15:19:06.060Z,100706.53
2023-08-14T15:22:08.507Z,100708.56
2023-08-14T15:25:13.132Z,100703.53
2023-08-14T15:28:15.868Z,100707.88
2023-08-14T15:31:18.291Z,100700.91
2023-08-14T15:34:20.810Z,100696.25
2023-08-14T15:37:23.346Z,100692.44
2023-08-14T15:40:25.828Z,100691.47
2023-08-14T15:43:28.328Z,100688.91
2023-08-14T15:46:30.765Z,100691.13
2023-08-14T15:49:33.197Z,100688.34
2023-08-14T15:52:35.789Z,100686.88
2023-08-14T15:55:39.918Z,100686.34
2023-08-14T15:58:42.259Z,100689.47
2023-08-14T16:01:47.093Z,100692.38
2023-08-14T16:04:50.455Z,100685.31
2023-08-14T16:07:53.228Z,100690.19
2023-08-14T16:10:55.619Z,100697.63
2023-08-14T16:13:58.536Z,100693.88
2023-08-14T16:17:00.953Z,100698.06
2023-08-14T16:20:05.099Z,100699.22
2023-08-14T16:23:07.574Z,100699.84
2023-08-14T16:26:09.986Z,100693.63
2023-08-14T16:29:12.760Z,100685.69
2023-08-14T16:32:16.031Z,100683.34
2023-08-14T16:35:18.460Z,100681.75
2023-08-14T16:38:20.891Z,100682.19
2023-08-14T16:41:23.281Z,100683.41
2023-08-14T16:44:25.765Z,100674.50
2023-08-14T16:47:29.329Z,100675.72
2023-08-14T16:50:31.997Z,100668.16
2023-08-14T16:53:34.565Z,100673.63
2023-08-14T16:56:39.088Z,100668.22
2023-08-14T16:59:41.526Z,100672.06
2023-08-14T17:02:44.001Z,100672.88
2023-08-14T17:05:46.377Z,100672.72
2023-08-14T17:08:48.759Z,100671.81
2023-08-14T17:11:51.139Z,100676.16
2023-08-14T17:14:53.506Z,100676.84
2023-08-14T17:17:55.986Z,100680.72
2023-08-14T17:20:58.782Z,100683.59
2023-08-14T17:24:01.215Z,100685.63
2023-08-14T17:27:03.919Z,100689.56
2023-08-14T17:30:07.155Z,100687.53
2023-08-14T17:33:09.719Z,100685.06
2023-08-14T17:36:12.134Z,100682.13
2023-08-14T17:39:14.556Z,100690.28
2023-08-14T17:42:17.173Z,100692.09
2023-08-14T17:45:19.572Z,100693.06
2023-08-14T17:48:22.326Z,100699.59
2023-08-14T17:51:24.776Z,100709.56
2023-08-14T17:54:27.166Z,100706.78
2023-08-14T17:57:29.497Z,100713.94
2023-08-14T18:00:31.945Z,100711.59
2023-08-14T18:03:35.243Z,100715.16
2023-08-14T18:06:37.750Z,100714.78
2023-08-14T18:09:40.145Z,100721.91
2023-08-14T18:12:42.559Z,100729.03
2023-08-14T18:15:45.276Z,100731.34
2023-08-14T18:18:47.739Z,100731.28
2023-08-14T18:21:50.137Z,100738.38
2023-08-14T18:24:52.506Z,100745.84
2023-08-14T18:27:54.914Z,100752.81
2023-08-14T18:30:57.338Z,100747.56
2023-08-14T18:33:59.803Z,100750.38
2023-08-14T18:37:02.266Z,100753.94
2023-08-14T18:40:05.279Z,100758.56
2023-08-14T18:43:08.337Z,100758.13
2023-08-14T18:46:10.777Z,100752.28
2023-08-14T18:49:13.252Z,100757.03
2023-08-14T18:52:15.697Z,100763.69
2023-08-14T18:55:18.110Z,100775.84
2023-08-14T18:58:20.605Z,100774.97
2023-08-14T19:01:23.082Z,100771.00
2023-08-14T19:04:40.994Z,100769.59
2023-08-14T19:07:44.417Z,100766.53
2023-08-14T19:10:46.826Z,100772.22
2023-08-14T19:13:49.326Z,100774.19
2023-08-14T19:16:51.754Z,100774.66
2023-08-14T19:19:54.242Z,100767.47
2023-08-14T19:22:56.669Z,100779.94
2023-08-14T19:25:59.064Z,100779.69
2023-08-14T19:29:01.488Z,100781.84
2023-08-14T19:32:04.126Z,100783.25
2023-08-14T19:35:07.248Z,100788.25
2023-08-14T19:38:10.035Z,100784.63
2023-08-14T19:41:12.476Z,100792.47
2023-08-14T19:44:14.868Z,100789.25
2023-08-14T19:47:17.522Z,100793.41
2023-08-14T19:50:20.316Z,100799.09
2023-08-14T19:53:22.747Z,100795.84
2023-08-14T19:56:25.104Z,100800.06
2023-08-14T19:59:27.551Z,100800.13
2023-08-14T20:02:29.969Z,100805.28
2023-08-14T20:05:32.444Z,100802.13
2023-08-14T20:08:34.885Z,100809.31
2023-08-14T20:11:37.264Z,100802.97
2023-08-14T20:14:41.328Z,100801.84
2023-08-14T20:17:43.877Z,100798.31
2023-08-14T20:20:46.543Z,100788.03
2023-08-14T20:23:48.895Z,100788.59
2023-08-14T20:26:51.397Z,100803.66
2023-08-14T20:29:54.096Z,100804.34
2023-08-14T20:32:56.643Z,100810.47
2023-08-14T20:35:59.086Z,100811.53
2023-08-14T20:39:01.563Z,100814.34
2023-08-14T20:42:04.086Z,100804.56
2023-08-14T20:45:07.214Z,100796.38
2023-08-14T20:48:09.969Z,100806.84
2023-08-14T20:51:13.057Z,100808.13
2023-08-14T20:54:15.465Z,100809.47
2023-08-14T20:57:18.525Z,100806.16
2023-08-14T21:00:21.136Z,100804.25
2023-08-14T21:03:23.721Z,100811.97
2023-08-14T21:06:26.412Z,100793.72
2023-08-14T21:09:29.213Z,100801.16
2023-08-14T21:12:31.659Z,100796.47
2023-08-14T21:15:34.181Z,100792.88
2023-08-14T21:18:36.696Z,100787.66
2023-08-14T21:21:39.636Z,100793.72
2023-08-14T21:24:42.025Z,100781.59
2023-08-14T21:27:45.744Z,100787.28
2023-08-14T21:30:48.229Z,100789.97
2023-08-14T21:33:50.681Z,100790.53
2023-08-14T21:36:53.038Z,100796.81
2023-08-14T21:39:55.533Z,100793.47
2023-08-14T21:42:58.483Z,100800.78
2023-08-14T21:46:01.079Z,100793.00
2023-08-14T21:49:03.751Z,100802.03
2023-08-14T21:52:06.801Z,100806.81
2023-08-14T21:55:09.675Z,100797.06
2023-08-14T21:58:12.130Z,100803.06
2023-08-14T22:01:14.609Z,100807.13
2023-08-14T22:04:17.154Z,100808.47
2023-08-14T22:07:19.743Z,100796.03
2023-08-14T22:10:22.357Z,100801.66
2023-08-14T22:13:25.509Z,100800.53
2023-08-14T22:16:28.322Z,100795.47
2023-08-14T22:19:30.831Z,100800.72
2023-08-14T22:22:33.232Z,100801.09
2023-08-14T22:25:35.699Z,100794.34
2023-08-14T22:28:40.264Z,100796.88
2023-08-14T22:31:42.646Z,100802.81
2023-08-14T22:34:45.059Z,100801.78
2023-08-14T22:37:47.416Z,100800.44
2023-08-14T22:40:51.378Z,100807.34
2023-08-14T22:43:53.794Z,100803.00
2023-08-14T22:46:56.294Z,100796.19
2023-08-14T22:49:58.689Z,100797.06
2023-08-14T22:53:01.341Z,100808.31
2023-08-14T22:56:03.907Z,100801.63
2023-08-14T22:59:06.278Z,100802.66
2023-08-14T23:02:08.695Z,100804.44
2023-08-14T23:05:11.083Z,100805.31
2023-08-14T23:08:13.430Z,100802.09
2023-08-14T23:11:15.842Z,100798.63
2023-08-14T23:14:18.221Z,100793.06
2023-08-14T23:17:20.734Z,100795.44
2023-08-14T23:20:23.296Z,100788.81
2023-08-14T23:23:25.790Z,100792.78
2023-08-14T23:26:28.200Z,100782.91
2023-08-14T23:29:30.613Z,100785.31
2023-08-14T23:32:33.076Z,100788.66
2023-08-14T23:35:35.481Z,100781.41
2023-08-14T23:38:37.959Z,100778.84
2023-08-14T23:41:40.924Z,100777.50
2023-08-14T23:44:43.320Z,100786.91
2023-08-14T23:47:45.767Z,100790.06
2023-08-14T23:50:48.308Z,100789.53
2023-08-14T23:53:50.886Z,100782.28
2023-08-14T23:56:53.257Z,100787.25
2023-08-14T23:59:55.621Z,100783.19
